sensor_id;sensor_type;location;lat;lon;timestamp;pressure;altitude;pressure_sealevel;temperature;humidity
20424;BME280;10371;49.042;8.002;2023-08-24T00:00:50;99927.88;;;22.38;76.75
20424;BME280;10371;49.042;8.002;2023-08-24T00:01:51;99926.88;;;22.39;76.45
20424;BME280;10371;49.042;8.002;2023-08-24T00:02:51;99922.59;;;22.38;76.72
20424;BME280;10371;49.042;8.002;2023-08-24T00:03:51;99921.97;;;22.36;76.84
20424;BME280;10371;49.042;8.002;2023-08-24T00:04:52;99928.88;;;22.37;76.65
20424;BME280;10371;49.042;8.002;2023-08-24T00:05:52;99917.84;;;22.33;76.84
20424;BME280;10371;49.042;8.002;2023-08-24T00:06:52;99921.53;;;22.32;76.83
20424;BME280;10371;49.042;8.002;2023-08-24T00:07:52;99924.78;;;22.34;76.81
20424;BME280;10371;49.042;8.002;2023-08-24T00:08:53;99924.59;;;22.36;76.83
20424;BME280;10371;49.042;8.002;2023-08-24T00:09:53;99928.06;;;22.36;76.93
20424;BME280;10371;49.042;8.002;2023-08-24T00:10:53;99922.34;;;22.33;76.89
20424;BME280;10371;49.042;8.002;2023-08-24T00:11:54;99920.50;;;22.33;76.91
20424;BME280;10371;49.042;8.002;2023-08-24T00:12:55;99919.88;;;22.31;76.80
20424;BME280;10371;49.042;8.002;2023-08-24T00:13:55;99914.97;;;22.28;76.88
20424;BME280;10371;49.042;8.002;2023-08-24T00:14:56;99914.16;;;22.27;76.88
20424;BME280;10371;49.042;8.002;2023-08-24T00:15:56;99915.78;;;22.28;77.03
20424;BME280;10371;49.042;8.002;2023-08-24T00:16:56;99910.88;;;22.25;76.99
20424;BME280;10371;49.042;8.002;2023-08-24T00:17:56;99900.88;;;22.21;77.13
20424;BME280;10371;49.042;8.002;2023-08-24T00:18:57;99913.31;;;22.20;76.98
20424;BME280;10371;49.042;8.002;2023-08-24T00:19:57;99903.53;;;22.21;77.08
20424;BME280;10371;49.042;8.002;2023-08-24T00:20:58;99910.88;;;22.19;77.04
20424;BME280;10371;49.042;8.002;2023-08-24T00:21:58;99901.44;;;22.16;77.45
20424;BME280;10371;49.042;8.002;2023-08-24T00:22:59;99904.69;;;22.12;77.41
20424;BME280;10371;49.042;8.002;2023-08-24T00:23:59;99896.31;;;22.08;77.66
20424;BME280;10371;49.042;8.002;2023-08-24T00:24:59;99907.13;;;22.06;77.86
20424;BME280;10371;49.042;8.002;2023-08-24T00:26:00;99904.84;;;22.03;77.97
20424;BME280;10371;49.042;8.002;2023-08-24T00:27:00;99904.03;;;22.03;77.91
20424;BME280;10371;49.042;8.002;2023-08-24T00:28:00;99906.88;;;22.01;77.94
20424;BME280;10371;49.042;8.002;2023-08-24T00:29:01;99907.06;;;22.00;78.19
20424;BME280;10371;49.042;8.002;2023-08-24T00:30:06;99913.97;;;21.94;78.11
20424;BME280;10371;49.042;8.002;2023-08-24T00:31:06;99914.19;;;21.93;78.54
20424;BME280;10371;49.042;8.002;2023-08-24T00:32:07;99913.94;;;21.88;78.53
20424;BME280;10371;49.042;8.002;2023-08-24T00:33:08;99910.25;;;21.82;78.91
20424;BME280;10371;49.042;8.002;2023-08-24T00:34:08;99913.69;;;21.76;79.00
20424;BME280;10371;49.042;8.002;2023-08-24T00:35:09;99909.75;;;21.72;79.50
20424;BME280;10371;49.042;8.002;2023-08-24T00:36:10;99910.56;;;21.72;79.42
20424;BME280;10371;49.042;8.002;2023-08-24T00:37:10;99908.31;;;21.69;79.49
20424;BME280;10371;49.042;8.002;2023-08-24T00:38:11;99902.22;;;21.75;79.35
20424;BME280;10371;49.042;8.002;2023-08-24T00:39:11;99903.69;;;21.78;79.04
20424;BME280;10371;49.042;8.002;2023-08-24T00:40:12;99919.66;;;21.84;78.91
20424;BME280;10371;49.042;8.002;2023-08-24T00:41:12;99919.50;;;21.93;78.38
20424;BME280;10371;49.042;8.002;2023-08-24T00:42:12;99916.44;;;21.96;77.98
20424;BME280;10371;49.042;8.002;2023-08-24T00:43:15;99920.31;;;22.00;77.81
20424;BME280;10371;49.042;8.002;2023-08-24T00:44:15;99921.97;;;22.01;78.02
20424;BME280;10371;49.042;8.002;2023-08-24T00:45:15;99917.69;;;22.00;77.90
20424;BME280;10371;49.042;8.002;2023-08-24T00:46:16;99911.16;;;22.02;77.81
20424;BME280;10371;49.042;8.002;2023-08-24T00:47:17;99912.19;;;22.01;77.80
20424;BME280;10371;49.042;8.002;2023-08-24T00:48:18;99914.44;;;22.04;77.57
20424;BME280;10371;49.042;8.002;2023-08-24T00:49:20;99906.09;;;22.07;77.21
20424;BME280;10371;49.042;8.002;2023-08-24T00:50:21;99917.75;;;22.13;76.98
20424;BME280;10371;49.042;8.002;2023-08-24T00:51:23;99913.25;;;22.07;77.20
20424;BME280;10371;49.042;8.002;2023-08-24T00:52:25;99909.31;;;22.03;77.37
20424;BME280;10371;49.042;8.002;2023-08-24T00:53:28;99916.06;;;21.99;77.56
20424;BME280;10371;49.042;8.002;2023-08-24T00:54:29;99918.06;;;21.97;77.83
20424;BME280;10371;49.042;8.002;2023-08-24T00:55:30;99920.47;;;21.92;77.99
20424;BME280;10371;49.042;8.002;2023-08-24T00:56:30;99917.41;;;21.88;77.97
20424;BME280;10371;49.042;8.002;2023-08-24T00:57:31;99916.78;;;21.86;78.14
20424;BME280;10371;49.042;8.002;2023-08-24T00:58:33;99920.47;;;21.85;78.18
20424;BME280;10371;49.042;8.002;2023-08-24T00:59:34;99913.50;;;21.84;78.13
20424;BME280;10371;49.042;8.002;2023-08-24T01:00:34;99922.28;;;21.84;78.07
20424;BME280;10371;49.042;8.002;2023-08-24T01:01:35;99921.91;;;21.88;78.31
20424;BME280;10371;49.042;8.002;2023-08-24T01:02:36;99922.09;;;21.86;78.13
20424;BME280;10371;49.042;8.002;2023-08-24T01:03:37;99927.38;;;21.86;78.22
20424;BME280;10371;49.042;8.002;2023-08-24T01:04:37;99922.91;;;21.86;78.07
20424;BME280;10371;49.042;8.002;2023-08-24T01:05:38;99921.91;;;21.88;78.22
20424;BME280;10371;49.042;8.002;2023-08-24T01:06:38;99931.69;;;21.87;78.05
20424;BME280;10371;49.042;8.002;2023-08-24T01:07:39;99926.19;;;21.89;78.12
20424;BME280;10371;49.042;8.002;2023-08-24T01:08:40;99924.56;;;21.88;78.18
20424;BME280;10371;49.042;8.002;2023-08-24T01:09:40;99915.97;;;21.85;78.11
20424;BME280;10371;49.042;8.002;2023-08-24T01:10:48;99923.28;;;21.83;78.19
20424;BME280;10371;49.042;8.002;2023-08-24T01:12:15;99919.66;;;21.84;78.22
20424;BME280;10371;49.042;8.002;2023-08-24T01:13:50;99924.72;;;21.86;78.28
20424;BME280;10371;49.042;8.002;2023-08-24T01:15:02;99925.34;;;21.81;78.12
20424;BME280;10371;49.042;8.002;2023-08-24T01:16:14;99916.34;;;21.82;77.98
20424;BME280;10371;49.042;8.002;2023-08-24T01:17:19;99922.69;;;21.81;78.19
20424;BME280;10371;49.042;8.002;2023-08-24T01:18:22;99921.44;;;21.84;78.07
20424;BME280;10371;49.042;8.002;2023-08-24T01:20:34;99925.34;;;21.81;78.02
20424;BME280;10371;49.042;8.002;2023-08-24T01:21:34;99922.22;;;21.78;78.02
20424;BME280;10371;49.042;8.002;2023-08-24T01:22:46;99924.88;;;21.78;78.39
20424;BME280;10371;49.042;8.002;2023-08-24T01:24:18;99927.53;;;21.78;78.13
20424;BME280;10371;49.042;8.002;2023-08-24T01:25:48;99918.53;;;21.72;78.24
20424;BME280;10371;49.042;8.002;2023-08-24T01:26:52;99923.44;;;21.75;78.21
20424;BME280;10371;49.042;8.002;2023-08-24T01:27:54;99918.13;;;21.75;78.14
20424;BME280;10371;49.042;8.002;2023-08-24T01:28:55;99917.16;;;21.76;77.79
20424;BME280;10371;49.042;8.002;2023-08-24T01:29:55;99920.03;;;21.81;77.98
20424;BME280;10371;49.042;8.002;2023-08-24T01:30:57;99920.03;;;21.81;77.60
20424;BME280;10371;49.042;8.002;2023-08-24T01:31:57;99918.81;;;21.84;77.75
20424;BME280;10371;49.042;8.002;2023-08-24T01:32:57;99918.63;;;21.85;77.35
20424;BME280;10371;49.042;8.002;2023-08-24T01:33:57;99909.03;;;21.84;77.67
20424;BME280;10371;49.042;8.002;2023-08-24T01:35:01;99914.13;;;21.86;77.70
20424;BME280;10371;49.042;8.002;2023-08-24T01:36:02;99912.69;;;21.83;77.39
20424;BME280;10371;49.042;8.002;2023-08-24T01:37:02;99911.06;;;21.82;77.32
20424;BME280;10371;49.042;8.002;2023-08-24T01:38:03;99915.53;;;21.82;77.40
20424;BME280;10371;49.042;8.002;2023-08-24T01:39:22;99917.97;;;21.77;77.68
20424;BME280;10371;49.042;8.002;2023-08-24T01:40:36;99917.31;;;21.75;78.00
20424;BME280;10371;49.042;8.002;2023-08-24T01:41:40;99914.25;;;21.71;77.95
20424;BME280;10371;49.042;8.002;2023-08-24T01:43:07;99930.63;;;21.81;77.41
20424;BME280;10371;49.042;8.002;2023-08-24T01:44:12;99913.31;;;21.85;77.03
20424;BME280;10371;49.042;8.002;2023-08-24T01:45:13;99926.00;;;21.90;76.79
20424;BME280;10371;49.042;8.002;2023-08-24T01:46:17;99926.19;;;21.95;76.59
20424;BME280;10371;49.042;8.002;2023-08-24T01:47:21;99922.56;;;21.96;76.29
20424;BME280;10371;49.042;8.002;2023-08-24T01:48:22;99920.09;;;21.95;76.53
20424;BME280;10371;49.042;8.002;2023-08-24T01:49:22;99921.75;;;21.96;76.35
20424;BME280;10371;49.042;8.002;2023-08-24T01:50:24;99922.75;;;21.95;76.42
20424;BME280;10371;49.042;8.002;2023-08-24T01:51:25;99920.72;;;21.97;76.30
20424;BME280;10371;49.042;8.002;2023-08-24T01:52:27;99920.53;;;21.98;76.44
20424;BME280;10371;49.042;8.002;2023-08-24T01:53:29;99919.09;;;21.96;76.17
20424;BME280;10371;49.042;8.002;2023-08-24T01:54:30;99926.66;;;21.99;76.08
20424;BME280;10371;49.042;8.002;2023-08-24T01:55:31;99918.06;;;21.97;76.17
20424;BME280;10371;49.042;8.002;2023-08-24T01:56:31;99914.78;;;21.95;76.11
20424;BME280;10371;49.042;8.002;2023-08-24T01:57:32;99925.84;;;21.98;76.00
20424;BME280;10371;49.042;8.002;2023-08-24T01:58:32;99919.91;;;21.96;75.93
20424;BME280;10371;49.042;8.002;2023-08-24T01:59:32;99926.66;;;21.99;75.80
20424;BME280;10371;49.042;8.002;2023-08-24T02:00:32;99930.75;;;22.01;75.56
20424;BME280;10371;49.042;8.002;2023-08-24T02:01:33;99924.00;;;21.99;75.71
20424;BME280;10371;49.042;8.002;2023-08-24T02:02:34;99920.72;;;21.97;76.01
20424;BME280;10371;49.042;8.002;2023-08-24T02:03:35;99918.66;;;21.92;76.27
20424;BME280;10371;49.042;8.002;2023-08-24T02:04:35;99922.13;;;21.93;75.98
20424;BME280;10371;49.042;8.002;2023-08-24T02:05:35;99928.50;;;21.98;75.78
20424;BME280;10371;49.042;8.002;2023-08-24T02:06:35;99918.06;;;21.97;75.85
20424;BME280;10371;49.042;8.002;2023-08-24T02:07:36;99920.53;;;21.98;75.92
20424;BME280;10371;49.042;8.002;2023-08-24T02:08:36;99919.69;;;21.98;76.02
20424;BME280;10371;49.042;8.002;2023-08-24T02:09:36;99906.25;;;21.99;75.63
20424;BME280;10371;49.042;8.002;2023-08-24T02:10:36;99913.41;;;22.05;75.13
20424;BME280;10371;49.042;8.002;2023-08-24T02:11:37;99914.47;;;22.11;75.08
20424;BME280;10371;49.042;8.002;2023-08-24T02:12:37;99918.97;;;22.17;74.66
20424;BME280;10371;49.042;8.002;2023-08-24T02:13:37;99920.00;;;22.16;74.80
20424;BME280;10371;49.042;8.002;2023-08-24T02:14:37;99922.91;;;22.21;74.62
20424;BME280;10371;49.042;8.002;2023-08-24T02:15:38;99918.00;;;22.18;74.53
20424;BME280;10371;49.042;8.002;2023-08-24T02:16:39;99923.91;;;22.20;74.49
20424;BME280;10371;49.042;8.002;2023-08-24T02:17:39;99914.53;;;22.18;74.49
20424;BME280;10371;49.042;8.002;2023-08-24T02:18:40;99923.91;;;22.20;74.30
20424;BME280;10371;49.042;8.002;2023-08-24T02:19:40;99914.88;;;22.15;74.56
20424;BME280;10371;49.042;8.002;2023-08-24T02:20:43;99921.44;;;22.12;74.71
20424;BME280;10371;49.042;8.002;2023-08-24T02:21:43;99911.25;;;22.16;74.49
20424;BME280;10371;49.042;8.002;2023-08-24T02:22:43;99905.50;;;22.12;74.75
20424;BME280;10371;49.042;8.002;2023-08-24T02:23:44;99900.16;;;22.05;75.02
20424;BME280;10371;49.042;8.002;2023-08-24T02:24:44;99907.31;;;22.12;75.04
20424;BME280;10371;49.042;8.002;2023-08-24T02:25:44;99901.81;;;22.06;75.16
20424;BME280;10371;49.042;8.002;2023-08-24T02:26:44;99903.44;;;22.01;75.61
20424;BME280;10371;49.042;8.002;2023-08-24T02:27:45;99904.00;;;21.96;75.34
20424;BME280;10371;49.042;8.002;2023-08-24T02:28:45;99893.97;;;21.92;75.58
20424;BME280;10371;49.042;8.002;2023-08-24T02:29:45;99890.69;;;21.90;75.78
20424;BME280;10371;49.042;8.002;2023-08-24T02:30:45;99891.09;;;21.86;75.72
20424;BME280;10371;49.042;8.002;2023-08-24T02:31:46;99884.34;;;21.84;75.91
20424;BME280;10371;49.042;8.002;2023-08-24T02:32:49;99878.00;;;21.78;76.33
20424;BME280;10371;49.042;8.002;2023-08-24T02:33:49;99879.50;;;21.88;75.95
20424;BME280;10371;49.042;8.002;2023-08-24T02:34:50;99876.78;;;21.81;76.24
20424;BME280;10371;49.042;8.002;2023-08-24T02:35:50;99878.38;;;21.75;76.38
20424;BME280;10371;49.042;8.002;2023-08-24T02:36:50;99870.44;;;21.75;76.47
20424;BME280;10371;49.042;8.002;2023-08-24T02:37:50;99877.53;;;21.68;76.94
20424;BME280;10371;49.042;8.002;2023-08-24T02:38:51;99869.75;;;21.60;77.16
20424;BME280;10371;49.042;8.002;2023-08-24T02:39:51;99867.72;;;21.62;77.15
20424;BME280;10371;49.042;8.002;2023-08-24T02:41:02;99868.47;;;21.56;77.41
20424;BME280;10371;49.042;8.002;2023-08-24T02:42:02;99866.84;;;21.55;77.67
20424;BME280;10371;49.042;8.002;2023-08-24T02:43:03;99871.13;;;21.56;77.39
20424;BME280;10371;49.042;8.002;2023-08-24T02:44:03;99868.47;;;21.56;77.63
20424;BME280;10371;49.042;8.002;2023-08-24T02:45:04;99870.94;;;21.57;77.73
20424;BME280;10371;49.042;8.002;2023-08-24T02:46:07;99876.63;;;21.54;77.71
20424;BME280;10371;49.042;8.002;2023-08-24T02:47:07;99866.22;;;21.53;77.77
20424;BME280;10371;49.042;8.002;2023-08-24T02:48:08;99865.00;;;21.49;77.93
20424;BME280;10371;49.042;8.002;2023-08-24T02:49:08;99858.25;;;21.46;78.09
20424;BME280;10371;49.042;8.002;2023-08-24T02:50:08;99863.97;;;21.50;78.08
20424;BME280;10371;49.042;8.002;2023-08-24T02:51:09;99858.25;;;21.46;78.29
20424;BME280;10371;49.042;8.002;2023-08-24T02:52:10;99855.78;;;21.45;78.27
20424;BME280;10371;49.042;8.002;2023-08-24T02:53:10;99852.53;;;21.42;78.30
20424;BME280;10371;49.042;8.002;2023-08-24T02:54:10;99858.81;;;21.41;78.61
20424;BME280;10371;49.042;8.002;2023-08-24T02:55:11;99850.00;;;21.34;78.72
20424;BME280;10371;49.042;8.002;2023-08-24T02:56:11;99847.53;;;21.33;79.10
20424;BME280;10371;49.042;8.002;2023-08-24T02:57:11;99836.28;;;21.31;79.22
20424;BME280;10371;49.042;8.002;2023-08-24T02:58:11;99849.53;;;21.31;79.09
20424;BME280;10371;49.042;8.002;2023-08-24T02:59:12;99841.16;;;21.27;79.62
20424;BME280;10371;49.042;8.002;2023-08-24T03:00:12;99837.06;;;21.25;79.43
20424;BME280;10371;49.042;8.002;2023-08-24T03:01:14;99836.09;;;21.26;79.47
20424;BME280;10371;49.042;8.002;2023-08-24T03:02:14;99834.00;;;21.21;79.63
20424;BME280;10371;49.042;8.002;2023-08-24T03:03:15;99843.38;;;21.24;79.90
20424;BME280;10371;49.042;8.002;2023-08-24T03:04:15;99827.03;;;21.20;79.98
20424;BME280;10371;49.042;8.002;2023-08-24T03:05:16;99839.28;;;21.21;79.90
20424;BME280;10371;49.042;8.002;2023-08-24T03:06:16;99828.88;;;21.19;80.33
20424;BME280;10371;49.042;8.002;2023-08-24T03:07:16;99827.03;;;21.20;80.15
20424;BME280;10371;49.042;8.002;2023-08-24T03:08:16;99825.81;;;21.16;80.19
20424;BME280;10371;49.042;8.002;2023-08-24T03:09:16;99825.41;;;21.19;80.30
20424;BME280;10371;49.042;8.002;2023-08-24T03:10:17;99829.47;;;21.15;80.61
20424;BME280;10371;49.042;8.002;2023-08-24T03:11:17;99825.81;;;21.16;80.54
20424;BME280;10371;49.042;8.002;2023-08-24T03:12:18;99825.41;;;21.19;80.60
20424;BME280;10371;49.042;8.002;2023-08-24T03:13:18;99838.03;;;21.17;80.64
20424;BME280;10371;49.042;8.002;2023-08-24T03:14:18;99822.53;;;21.14;80.72
20424;BME280;10371;49.042;8.002;2023-08-24T03:15:18;99819.28;;;21.12;80.70
20424;BME280;10371;49.042;8.002;2023-08-24T03:16:19;99823.56;;;21.13;80.79
20424;BME280;10371;49.042;8.002;2023-08-24T03:17:20;99818.66;;;21.10;80.87
20424;BME280;10371;49.042;8.002;2023-08-24T03:18:21;99813.97;;;21.12;81.08
20424;BME280;10371;49.042;8.002;2023-08-24T03:19:21;99805.84;;;21.13;80.71
20424;BME280;10371;49.042;8.002;2023-08-24T03:20:21;99801.75;;;21.11;80.93
20424;BME280;10371;49.042;8.002;2023-08-24T03:21:22;99804.81;;;21.14;80.76
20424;BME280;10371;49.042;8.002;2023-08-24T03:22:23;99800.97;;;21.17;80.81
20424;BME280;10371;49.042;8.002;2023-08-24T03:23:23;99802.63;;;21.18;80.68
20424;BME280;10371;49.042;8.002;2023-08-24T03:24:23;99803.00;;;21.15;80.74
20424;BME280;10371;49.042;8.002;2023-08-24T03:25:23;99797.66;;;21.08;81.03
20424;BME280;10371;49.042;8.002;2023-08-24T03:26:24;99805.53;;;21.02;81.30
20424;BME280;10371;49.042;8.002;2023-08-24T03:27:24;99797.56;;;20.95;81.59
20424;BME280;10371;49.042;8.002;2023-08-24T03:28:24;99803.22;;;20.92;82.07
20424;BME280;10371;49.042;8.002;2023-08-24T03:29:24;99798.53;;;20.87;82.24
20424;BME280;10371;49.042;8.002;2023-08-24T03:30:25;99797.47;;;20.82;82.58
20424;BME280;10371;49.042;8.002;2023-08-24T03:31:25;99808.59;;;20.77;82.95
20424;BME280;10371;49.042;8.002;2023-08-24T03:32:26;99813.03;;;20.70;83.57
20424;BME280;10371;49.042;8.002;2023-08-24T03:33:26;99804.22;;;20.63;83.96
20424;BME280;10371;49.042;8.002;2023-08-24T03:34:28;99808.84;;;20.61;84.12
20424;BME280;10371;49.042;8.002;2023-08-24T03:35:33;99810.63;;;20.53;84.44
20424;BME280;10371;49.042;8.002;2023-08-24T03:36:34;99803.88;;;20.51;84.79
20424;BME280;10371;49.042;8.002;2023-08-24T03:37:34;99807.72;;;20.48;85.04
20424;BME280;10371;49.042;8.002;2023-08-24T03:38:34;99813.81;;;20.49;85.15
20424;BME280;10371;49.042;8.002;2023-08-24T03:39:37;99813.00;;;20.48;85.40
20424;BME280;10371;49.042;8.002;2023-08-24T03:40:37;99806.03;;;20.47;85.48
20424;BME280;10371;49.042;8.002;2023-08-24T03:41:38;99805.22;;;20.47;85.45
20424;BME280;10371;49.042;8.002;2023-08-24T03:42:38;99806.88;;;20.48;85.63
20424;BME280;10371;49.042;8.002;2023-08-24T03:43:38;99808.09;;;20.45;85.84
20424;BME280;10371;49.042;8.002;2023-08-24T03:44:39;99810.09;;;20.43;86.15
20424;BME280;10371;49.042;8.002;2023-08-24T03:45:39;99809.06;;;20.44;86.20
20424;BME280;10371;49.042;8.002;2023-08-24T03:46:39;99801.50;;;20.41;86.42
20424;BME280;10371;49.042;8.002;2023-08-24T03:47:40;99804.75;;;20.37;86.78
20424;BME280;10371;49.042;8.002;2023-08-24T03:48:40;99805.94;;;20.34;87.06
20424;BME280;10371;49.042;8.002;2023-08-24T03:49:43;99802.28;;;20.35;87.13
20424;BME280;10371;49.042;8.002;2023-08-24T03:50:44;99800.81;;;20.33;87.15
20424;BME280;10371;49.042;8.002;2023-08-24T03:51:44;99818.53;;;20.32;87.14
20424;BME280;10371;49.042;8.002;2023-08-24T03:52:44;99816.91;;;20.31;87.33
20424;BME280;10371;49.042;8.002;2023-08-24T03:53:45;99814.41;;;20.29;87.26
20424;BME280;10371;49.042;8.002;2023-08-24T03:54:45;99816.91;;;20.31;87.50
20424;BME280;10371;49.042;8.002;2023-08-24T03:55:48;99821.34;;;20.30;87.51
20424;BME280;10371;49.042;8.002;2023-08-24T03:56:49;99822.19;;;20.31;87.43
20424;BME280;10371;49.042;8.002;2023-08-24T03:57:50;99821.97;;;20.33;87.57
20424;BME280;10371;49.042;8.002;2023-08-24T03:58:50;99821.16;;;20.32;87.41
20424;BME280;10371;49.042;8.002;2023-08-24T03:59:50;99818.53;;;20.32;87.26
20424;BME280;10371;49.042;8.002;2023-08-24T04:00:50;99811.41;;;20.33;87.31
20424;BME280;10371;49.042;8.002;2023-08-24T04:01:51;99806.91;;;20.33;87.17
20424;BME280;10371;49.042;8.002;2023-08-24T04:02:51;99806.13;;;20.33;87.39
20424;BME280;10371;49.042;8.002;2023-08-24T04:03:51;99796.56;;;20.31;87.40
20424;BME280;10371;49.042;8.002;2023-08-24T04:04:52;99792.25;;;20.30;87.38
20424;BME280;10371;49.042;8.002;2023-08-24T04:05:52;99791.44;;;20.30;87.34
20424;BME280;10371;49.042;8.002;2023-08-24T04:06:53;99799.38;;;20.30;87.27
20424;BME280;10371;49.042;8.002;2023-08-24T04:07:53;99804.66;;;20.30;87.42
20424;BME280;10371;49.042;8.002;2023-08-24T04:08:53;99801.38;;;20.28;87.28
20424;BME280;10371;49.042;8.002;2023-08-24T04:09:53;99807.03;;;20.25;87.42
20424;BME280;10371;49.042;8.002;2023-08-24T04:10:54;99796.28;;;20.26;87.44
20424;BME280;10371;49.042;8.002;2023-08-24T04:11:54;99805.41;;;20.24;87.52
20424;BME280;10371;49.042;8.002;2023-08-24T04:12:55;99801.31;;;20.21;87.64
20424;BME280;10371;49.042;8.002;2023-08-24T04:13:55;99803.78;;;20.23;87.56
20424;BME280;10371;49.042;8.002;2023-08-24T04:14:55;99791.38;;;20.23;87.47
20424;BME280;10371;49.042;8.002;2023-08-24T04:15:57;99795.00;;;20.22;87.38
20424;BME280;10371;49.042;8.002;2023-08-24T04:16:58;99788.91;;;20.22;87.31
20424;BME280;10371;49.042;8.002;2023-08-24T04:17:59;99788.09;;;20.21;87.38
20424;BME280;10371;49.042;8.002;2023-08-24T04:18:59;99788.09;;;20.21;87.36
20424;BME280;10371;49.042;8.002;2023-08-24T04:19:59;99791.13;;;20.18;87.34
20424;BME280;10371;49.042;8.002;2023-08-24T04:20:59;99786.22;;;20.15;87.42
20424;BME280;10371;49.042;8.002;2023-08-24T04:22:00;99786.66;;;20.19;87.32
20424;BME280;10371;49.042;8.002;2023-08-24T04:23:01;99791.94;;;20.19;87.24
20424;BME280;10371;49.042;8.002;2023-08-24T04:24:02;99794.56;;;20.19;87.16
20424;BME280;10371;49.042;8.002;2023-08-24T04:25:03;99793.75;;;20.18;87.10
20424;BME280;10371;49.042;8.002;2023-08-24T04:26:03;99782.00;;;20.21;87.02
20424;BME280;10371;49.042;8.002;2023-08-24T04:27:05;99780.72;;;20.17;87.09
20424;BME280;10371;49.042;8.002;2023-08-24T04:28:05;99778.91;;;20.17;87.05
20424;BME280;10371;49.042;8.002;2023-08-24T04:29:05;99772.78;;;20.17;86.88
20424;BME280;10371;49.042;8.002;2023-08-24T04:30:06;99773.63;;;20.17;87.02
20424;BME280;10371;49.042;8.002;2023-08-24T04:31:11;99767.50;;;20.17;86.99
20424;BME280;10371;49.042;8.002;2023-08-24T04:32:11;99769.16;;;20.18;86.92
20424;BME280;10371;49.042;8.002;2023-08-24T04:33:12;99761.41;;;20.16;86.93
20424;BME280;10371;49.042;8.002;2023-08-24T04:34:12;99766.31;;;20.19;86.94
20424;BME280;10371;49.042;8.002;2023-08-24T04:35:12;99770.78;;;20.19;86.77
20424;BME280;10371;49.042;8.002;2023-08-24T04:36:12;99766.50;;;20.18;86.69
20424;BME280;10371;49.042;8.002;2023-08-24T04:37:13;99768.13;;;20.19;86.36
20424;BME280;10371;49.042;8.002;2023-08-24T04:38:13;99766.78;;;20.23;86.34
20424;BME280;10371;49.042;8.002;2023-08-24T04:39:13;99773.31;;;20.27;86.05
20424;BME280;10371;49.042;8.002;2023-08-24T04:40:14;99771.69;;;20.26;85.87
20424;BME280;10371;49.042;8.002;2023-08-24T04:41:14;99769.66;;;20.28;85.57
20424;BME280;10371;49.042;8.002;2023-08-24T04:42:14;99772.56;;;20.33;85.63
20424;BME280;10371;49.042;8.002;2023-08-24T04:43:14;99767.91;;;20.35;85.17
20424;BME280;10371;49.042;8.002;2023-08-24T04:44:15;99771.78;;;20.39;85.08
20424;BME280;10371;49.042;8.002;2023-08-24T04:45:15;99768.22;;;20.47;84.51
20424;BME280;10371;49.042;8.002;2023-08-24T04:46:15;99766.19;;;20.49;84.22
20424;BME280;10371;49.042;8.002;2023-08-24T04:47:15;99763.38;;;20.50;84.23
20424;BME280;10371;49.042;8.002;2023-08-24T04:48:16;99764.19;;;20.51;84.01
20424;BME280;10371;49.042;8.002;2023-08-24T04:49:16;99764.19;;;20.51;83.90
20424;BME280;10371;49.042;8.002;2023-08-24T04:50:16;99764.84;;;20.53;83.86
20424;BME280;10371;49.042;8.002;2023-08-24T04:51:17;99766.91;;;20.58;83.70
20424;BME280;10371;49.042;8.002;2023-08-24T04:52:17;99762.25;;;20.60;83.60
20424;BME280;10371;49.042;8.002;2023-08-24T04:53:18;99772.06;;;20.66;83.34
20424;BME280;10371;49.042;8.002;2023-08-24T04:54:18;99769.03;;;20.69;83.17
20424;BME280;10371;49.042;8.002;2023-08-24T04:55:19;99774.16;;;20.70;83.09
20424;BME280;10371;49.042;8.002;2023-08-24T04:56:19;99769.72;;;20.78;82.74
20424;BME280;10371;49.042;8.002;2023-08-24T04:57:19;99768.34;;;20.82;82.61
20424;BME280;10371;49.042;8.002;2023-08-24T04:58:20;99768.13;;;20.83;82.24
20424;BME280;10371;49.042;8.002;2023-08-24T04:59:20;99765.75;;;20.88;82.06
20424;BME280;10371;49.042;8.002;2023-08-24T05:00:20;99772.31;;;20.92;81.90
20424;BME280;10371;49.042;8.002;2023-08-24T05:01:21;99766.16;;;20.92;81.73
20424;BME280;10371;49.042;8.002;2023-08-24T05:02:21;99765.34;;;20.91;81.96
20424;BME280;10371;49.042;8.002;2023-08-24T05:03:21;99760.69;;;20.93;81.78
20424;BME280;10371;49.042;8.002;2023-08-24T05:04:21;99755.41;;;20.93;81.70
20424;BME280;10371;49.042;8.002;2023-08-24T05:05:22;99760.50;;;20.95;81.73
20424;BME280;10371;49.042;8.002;2023-08-24T05:06:22;99759.50;;;20.96;81.62
20424;BME280;10371;49.042;8.002;2023-08-24T05:07:22;99756.03;;;20.95;81.85
20424;BME280;10371;49.042;8.002;2023-08-24T05:08:23;99760.50;;;20.95;81.78
20424;BME280;10371;49.042;8.002;2023-08-24T05:09:23;99758.47;;;20.97;81.78
20424;BME280;10371;49.042;8.002;2023-08-24T05:10:24;99754.44;;;21.01;81.32
20424;BME280;10371;49.042;8.002;2023-08-24T05:11:27;99760.56;;;21.02;81.23
20424;BME280;10371;49.042;8.002;2023-08-24T05:12:29;99764.81;;;21.03;81.22
20424;BME280;10371;49.042;8.002;2023-08-24T05:13:29;99770.34;;;21.08;81.16
20424;BME280;10371;49.042;8.002;2023-08-24T05:14:31;99764.50;;;21.12;80.56
20424;BME280;10371;49.042;8.002;2023-08-24T05:15:32;99770.38;;;21.14;80.42
20424;BME280;10371;49.042;8.002;2023-08-24T05:16:32;99774.47;;;21.17;80.26
20424;BME280;10371;49.042;8.002;2023-08-24T05:17:33;99784.50;;;21.22;80.27
20424;BME280;10371;49.042;8.002;2023-08-24T05:18:34;99780.03;;;21.22;80.05
20424;BME280;10371;49.042;8.002;2023-08-24T05:19:35;99786.34;;;21.21;80.21
20424;BME280;10371;49.042;8.002;2023-08-24T05:20:35;99786.97;;;21.23;80.23
20424;BME280;10371;49.042;8.002;2023-08-24T05:21:35;99793.72;;;21.26;80.11
20424;BME280;10371;49.042;8.002;2023-08-24T05:22:36;99800.44;;;21.28;80.24
20424;BME280;10371;49.042;8.002;2023-08-24T05:23:36;99799.00;;;21.26;80.45
20424;BME280;10371;49.042;8.002;2023-08-24T05:24:37;99809.22;;;21.29;80.24
20424;BME280;10371;49.042;8.002;2023-08-24T05:25:37;99807.38;;;21.29;80.22
20424;BME280;10371;49.042;8.002;2023-08-24T05:26:37;99814.72;;;21.34;80.08